sensor_id;sensor_type;location;lat;lon;timestamp;temperature;humidity
67752;DHT22;54551;51.068;5.826;2022-09-02T00:00:48;18.00;99.90
67752;DHT22;54551;51.068;5.826;2022-09-02T00:03:15;18.10;99.90
67752;DHT22;54551;51.068;5.826;2022-09-02T00:05:43;18.10;99.90
67752;DHT22;54551;51.068;5.826;2022-09-02T00:08:10;18.10;99.90
67752;DHT22;54551;51.068;5.826;2022-09-02T00:10:39;18.20;99.90
67752;DHT22;54551;51.068;5.826;2022-09-02T00:13:08;18.20;99.90
67752;DHT22;54551;51.068;5.826;2022-09-02T00:15:34;18.20;99.90
67752;DHT22;54551;51.068;5.826;2022-09-02T00:18:01;18.20;99.90
67752;DHT22;54551;51.068;5.826;2022-09-02T00:20:28;18.10;99.90
67752;DHT22;54551;51.068;5.826;2022-09-02T00:22:55;18.20;99.90
67752;DHT22;54551;51.068;5.826;2022-09-02T00:25:22;18.30;99.90
67752;DHT22;54551;51.068;5.826;2022-09-02T00:27:48;18.30;99.90
67752;DHT22;54551;51.068;5.826;2022-09-02T00:30:15;18.40;99.90
67752;DHT22;54551;51.068;5.826;2022-09-02T00:32:41;18.40;99.90
67752;DHT22;54551;51.068;5.826;2022-09-02T00:35:08;18.40;99.90
67752;DHT22;54551;51.068;5.826;2022-09-02T00:37:35;18.30;99.90
67752;DHT22;54551;51.068;5.826;2022-09-02T00:40:02;18.30;99.90
67752;DHT22;54551;51.068;5.826;2022-09-02T00:42:28;18.40;99.90
67752;DHT22;54551;51.068;5.826;2022-09-02T00:44:54;18.40;99.90
67752;DHT22;54551;51.068;5.826;2022-09-02T00:47:20;18.30;99.90
67752;DHT22;54551;51.068;5.826;2022-09-02T00:49:50;18.40;99.90
67752;DHT22;54551;51.068;5.826;2022-09-02T00:54:56;18.50;99.90
67752;DHT22;54551;51.068;5.826;2022-09-02T00:57:29;18.50;99.90
67752;DHT22;54551;51.068;5.826;2022-09-02T01:00:11;18.50;99.90
67752;DHT22;54551;51.068;5.826;2022-09-02T01:02:40;18.50;99.90
67752;DHT22;54551;51.068;5.826;2022-09-02T01:05:09;18.50;99.90
67752;DHT22;54551;51.068;5.826;2022-09-02T01:07:37;18.50;99.90
67752;DHT22;54551;51.068;5.826;2022-09-02T01:10:06;18.40;99.90
67752;DHT22;54551;51.068;5.826;2022-09-02T01:12:33;18.50;99.90
67752;DHT22;54551;51.068;5.826;2022-09-02T01:15:01;18.50;99.90
67752;DHT22;54551;51.068;5.826;2022-09-02T01:17:28;18.40;99.90
67752;DHT22;54551;51.068;5.826;2022-09-02T01:19:58;18.40;99.90
67752;DHT22;54551;51.068;5.826;2022-09-02T01:22:28;18.30;99.90
67752;DHT22;54551;51.068;5.826;2022-09-02T01:24:57;18.30;99.90
67752;DHT22;54551;51.068;5.826;2022-09-02T01:27:25;18.20;99.90
67752;DHT22;54551;51.068;5.826;2022-09-02T01:29:54;18.30;99.90
67752;DHT22;54551;51.068;5.826;2022-09-02T01:32:21;18.30;99.90
67752;DHT22;54551;51.068;5.826;2022-09-02T01:34:47;18.30;99.90
67752;DHT22;54551;51.068;5.826;2022-09-02T01:37:14;18.30;99.90
67752;DHT22;54551;51.068;5.826;2022-09-02T01:39:40;18.20;99.90
67752;DHT22;54551;51.068;5.826;2022-09-02T01:42:06;18.30;99.90
67752;DHT22;54551;51.068;5.826;2022-09-02T01:44:33;18.30;99.90
67752;DHT22;54551;51.068;5.826;2022-09-02T01:47:02;18.30;99.90
67752;DHT22;54551;51.068;5.826;2022-09-02T01:49:29;18.30;99.90
67752;DHT22;54551;51.068;5.826;2022-09-02T01:51:55;18.20;99.90
67752;DHT22;54551;51.068;5.826;2022-09-02T01:54:21;18.20;99.90
67752;DHT22;54551;51.068;5.826;2022-09-02T01:56:47;18.30;99.90
67752;DHT22;54551;51.068;5.826;2022-09-02T01:59:13;18.30;99.90
67752;DHT22;54551;51.068;5.826;2022-09-02T02:01:44;18.20;99.90
67752;DHT22;54551;51.068;5.826;2022-09-02T02:04:11;18.30;99.90
67752;DHT22;54551;51.068;5.826;2022-09-02T02:06:44;18.30;99.90
67752;DHT22;54551;51.068;5.826;2022-09-02T02:09:13;18.30;99.90
67752;DHT22;54551;51.068;5.826;2022-09-02T02:11:42;18.40;99.90
67752;DHT22;54551;51.068;5.826;2022-09-02T02:14:10;18.40;99.90
67752;DHT22;54551;51.068;5.826;2022-09-02T02:16:44;18.50;99.90
67752;DHT22;54551;51.068;5.826;2022-09-02T02:19:11;18.50;99.90
67752;DHT22;54551;51.068;5.826;2022-09-02T02:21:39;18.60;99.90
67752;DHT22;54551;51.068;5.826;2022-09-02T02:24:06;18.60;99.90
67752;DHT22;54551;51.068;5.826;2022-09-02T02:26:34;18.60;99.90
67752;DHT22;54551;51.068;5.826;2022-09-02T02:29:02;18.60;99.90
67752;DHT22;54551;51.068;5.826;2022-09-02T02:31:28;18.60;99.90
67752;DHT22;54551;51.068;5.826;2022-09-02T02:33:54;18.60;99.90
67752;DHT22;54551;51.068;5.826;2022-09-02T02:36:21;18.70;99.90
67752;DHT22;54551;51.068;5.826;2022-09-02T02:38:47;18.70;99.90
67752;DHT22;54551;51.068;5.826;2022-09-02T02:41:14;18.70;99.90
67752;DHT22;54551;51.068;5.826;2022-09-02T02:43:41;18.70;99.90
67752;DHT22;54551;51.068;5.826;2022-09-02T02:46:07;18.70;99.90
67752;DHT22;54551;51.068;5.826;2022-09-02T02:48:35;18.70;99.90
67752;DHT22;54551;51.068;5.826;2022-09-02T02:51:02;18.70;99.90
67752;DHT22;54551;51.068;5.826;2022-09-02T02:53:29;18.70;99.90
67752;DHT22;54551;51.068;5.826;2022-09-02T02:55:57;18.70;99.90
67752;DHT22;54551;51.068;5.826;2022-09-02T02:58:24;18.70;99.90
67752;DHT22;54551;51.068;5.826;2022-09-02T03:00:50;18.70;99.90
67752;DHT22;54551;51.068;5.826;2022-09-02T03:03:19;18.70;99.90
67752;DHT22;54551;51.068;5.826;2022-09-02T03:05:50;18.70;99.90
67752;DHT22;54551;51.068;5.826;2022-09-02T03:08:17;18.70;99.90
67752;DHT22;54551;51.068;5.826;2022-09-02T03:10:49;18.70;99.90
67752;DHT22;54551;51.068;5.826;2022-09-02T03:13:21;18.70;99.90
67752;DHT22;54551;51.068;5.826;2022-09-02T03:15:48;18.70;99.90
67752;DHT22;54551;51.068;5.826;2022-09-02T03:18:15;18.70;99.90
67752;DHT22;54551;51.068;5.826;2022-09-02T03:20:41;18.70;99.90
67752;DHT22;54551;51.068;5.826;2022-09-02T03:23:09;18.70;99.90
67752;DHT22;54551;51.068;5.826;2022-09-02T03:25:41;18.70;99.90
67752;DHT22;54551;51.068;5.826;2022-09-02T03:28:15;18.70;99.90
67752;DHT22;54551;51.068;5.826;2022-09-02T03:30:44;18.70;99.90
67752;DHT22;54551;51.068;5.826;2022-09-02T03:33:13;18.70;99.90
67752;DHT22;54551;51.068;5.826;2022-09-02T03:35:41;18.60;99.90
67752;DHT22;54551;51.068;5.826;2022-09-02T03:38:09;18.60;99.90
67752;DHT22;54551;51.068;5.826;2022-09-02T03:40:35;18.60;99.90
67752;DHT22;54551;51.068;5.826;2022-09-02T03:43:01;18.50;99.90
67752;DHT22;54551;51.068;5.826;2022-09-02T03:45:29;18.50;99.90
67752;DHT22;54551;51.068;5.826;2022-09-02T03:47:57;18.50;99.90
67752;DHT22;54551;51.068;5.826;2022-09-02T03:50:32;18.50;99.90
67752;DHT22;54551;51.068;5.826;2022-09-02T03:52:58;18.50;99.90
67752;DHT22;54551;51.068;5.826;2022-09-02T03:55:26;18.60;99.90
67752;DHT22;54551;51.068;5.826;2022-09-02T03:57:53;18.60;99.90
67752;DHT22;54551;51.068;5.826;2022-09-02T04:00:23;18.60;99.90
67752;DHT22;54551;51.068;5.826;2022-09-02T04:02:51;18.60;99.90
67752;DHT22;54551;51.068;5.826;2022-09-02T04:05:19;18.60;99.90
67752;DHT22;54551;51.068;5.826;2022-09-02T04:07:45;18.60;99.90
67752;DHT22;54551;51.068;5.826;2022-09-02T04:10:11;18.60;99.90
67752;DHT22;54551;51.068;5.826;2022-09-02T04:12:38;18.60;99.90
67752;DHT22;54551;51.068;5.826;2022-09-02T04:15:07;18.60;99.90
67752;DHT22;54551;51.068;5.826;2022-09-02T04:17:38;18.60;99.90
67752;DHT22;54551;51.068;5.826;2022-09-02T04:20:09;18.60;99.90
67752;DHT22;54551;51.068;5.826;2022-09-02T04:22:35;18.70;99.90
67752;DHT22;54551;51.068;5.826;2022-09-02T04:25:01;18.60;99.90
67752;DHT22;54551;51.068;5.826;2022-09-02T04:27:27;18.60;99.90
67752;DHT22;54551;51.068;5.826;2022-09-02T04:29:54;18.50;99.90
67752;DHT22;54551;51.068;5.826;2022-09-02T04:32:21;18.60;99.90
67752;DHT22;54551;51.068;5.826;2022-09-02T04:34:49;18.60;99.90
67752;DHT22;54551;51.068;5.826;2022-09-02T04:37:16;18.60;99.90
67752;DHT22;54551;51.068;5.826;2022-09-02T04:39:43;18.70;99.90
67752;DHT22;54551;51.068;5.826;2022-09-02T04:42:10;18.60;99.90
67752;DHT22;54551;51.068;5.826;2022-09-02T04:44:35;18.60;99.90
67752;DHT22;54551;51.068;5.826;2022-09-02T04:47:02;18.60;99.90
67752;DHT22;54551;51.068;5.826;2022-09-02T04:49:28;18.70;99.90
67752;DHT22;54551;51.068;5.826;2022-09-02T04:51:58;18.70;99.90
67752;DHT22;54551;51.068;5.826;2022-09-02T04:54:25;18.70;99.90
67752;DHT22;54551;51.068;5.826;2022-09-02T04:56:53;18.60;99.90
67752;DHT22;54551;51.068;5.826;2022-09-02T04:59:20;18.60;99.90
67752;DHT22;54551;51.068;5.826;2022-09-02T05:01:56;18.50;99.90
67752;DHT22;54551;51.068;5.826;2022-09-02T05:04:25;18.50;99.90
67752;DHT22;54551;51.068;5.826;2022-09-02T05:06:54;18.60;99.90
67752;DHT22;54551;51.068;5.826;2022-09-02T05:09:21;18.70;99.90
67752;DHT22;54551;51.068;5.826;2022-09-02T05:11:53;18.70;99.90
67752;DHT22;54551;51.068;5.826;2022-09-02T05:14:25;18.70;99.90
67752;DHT22;54551;51.068;5.826;2022-09-02T05:16:53;18.80;99.90
67752;DHT22;54551;51.068;5.826;2022-09-02T05:19:23;19.00;99.90
67752;DHT22;54551;51.068;5.826;2022-09-02T05:21:51;19.20;99.90
67752;DHT22;54551;51.068;5.826;2022-09-02T05:24:30;19.30;99.90
67752;DHT22;54551;51.068;5.826;2022-09-02T05:27:01;19.30;99.90
67752;DHT22;54551;51.068;5.826;2022-09-02T05:29:30;19.30;99.90
67752;DHT22;54551;51.068;5.826;2022-09-02T05:31:56;19.30;99.90
67752;DHT22;54551;51.068;5.826;2022-09-02T05:34:23;19.20;99.90
67752;DHT22;54551;51.068;5.826;2022-09-02T05:36:52;19.30;99.90
67752;DHT22;54551;51.068;5.826;2022-09-02T05:39:18;19.30;99.90
67752;DHT22;54551;51.068;5.826;2022-09-02T05:41:45;19.30;99.90
67752;DHT22;54551;51.068;5.826;2022-09-02T05:44:11;19.20;99.90
67752;DHT22;54551;51.068;5.826;2022-09-02T05:46:37;19.20;99.90
67752;DHT22;54551;51.068;5.826;2022-09-02T05:49:04;19.20;99.90
67752;DHT22;54551;51.068;5.826;2022-09-02T05:51:33;19.20;99.90
67752;DHT22;54551;51.068;5.826;2022-09-02T05:54:00;19.10;99.90
67752;DHT22;54551;51.068;5.826;2022-09-02T05:56:27;19.00;99.90
67752;DHT22;54551;51.068;5.826;2022-09-02T05:58:55;19.00;99.90
67752;DHT22;54551;51.068;5.826;2022-09-02T06:01:25;19.00;99.90
67752;DHT22;54551;51.068;5.826;2022-09-02T06:03:51;19.00;99.90
67752;DHT22;54551;51.068;5.826;2022-09-02T06:06:19;19.00;99.90
67752;DHT22;54551;51.068;5.826;2022-09-02T06:08:47;19.10;99.90
67752;DHT22;54551;51.068;5.826;2022-09-02T06:11:13;19.20;99.90
67752;DHT22;54551;51.068;5.826;2022-09-02T06:13:41;19.10;99.90
67752;DHT22;54551;51.068;5.826;2022-09-02T06:16:07;19.20;99.90
67752;DHT22;54551;51.068;5.826;2022-09-02T06:18:38;19.20;99.90
67752;DHT22;54551;51.068;5.826;2022-09-02T06:21:05;19.30;99.90
67752;DHT22;54551;51.068;5.826;2022-09-02T06:23:36;19.30;99.90
67752;DHT22;54551;51.068;5.826;2022-09-02T06:26:08;19.30;99.90
67752;DHT22;54551;51.068;5.826;2022-09-02T06:28:35;19.40;99.90
67752;DHT22;54551;51.068;5.826;2022-09-02T06:31:10;19.40;99.90
67752;DHT22;54551;51.068;5.826;2022-09-02T06:33:38;19.50;99.90
67752;DHT22;54551;51.068;5.826;2022-09-02T06:36:10;19.50;99.90
67752;DHT22;54551;51.068;5.826;2022-09-02T06:38:40;19.60;99.90
67752;DHT22;54551;51.068;5.826;2022-09-02T06:41:13;19.60;99.90
67752;DHT22;54551;51.068;5.826;2022-09-02T06:43:42;19.70;99.90
67752;DHT22;54551;51.068;5.826;2022-09-02T06:46:16;19.70;99.90
67752;DHT22;54551;51.068;5.826;2022-09-02T06:48:44;19.80;99.90
67752;DHT22;54551;51.068;5.826;2022-09-02T06:51:25;19.80;99.90
67752;DHT22;54551;51.068;5.826;2022-09-02T06:53:53;19.80;99.90
67752;DHT22;54551;51.068;5.826;2022-09-02T06:56:20;19.90;99.90
67752;DHT22;54551;51.068;5.826;2022-09-02T06:58:47;20.00;99.90
67752;DHT22;54551;51.068;5.826;2022-09-02T07:01:21;20.00;99.90
67752;DHT22;54551;51.068;5.826;2022-09-02T07:03:47;20.00;99.90
67752;DHT22;54551;51.068;5.826;2022-09-02T07:06:37;20.10;99.90
67752;DHT22;54551;51.068;5.826;2022-09-02T07:09:05;20.20;99.90
67752;DHT22;54551;51.068;5.826;2022-09-02T07:11:33;20.30;99.90
67752;DHT22;54551;51.068;5.826;2022-09-02T07:14:00;20.30;99.90
67752;DHT22;54551;51.068;5.826;2022-09-02T07:16:29;20.30;99.90
67752;DHT22;54551;51.068;5.826;2022-09-02T07:18:56;20.40;99.90
67752;DHT22;54551;51.068;5.826;2022-09-02T07:21:23;20.30;99.90
67752;DHT22;54551;51.068;5.826;2022-09-02T07:23:49;20.30;99.90
67752;DHT22;54551;51.068;5.826;2022-09-02T07:26:17;20.40;99.90
67752;DHT22;54551;51.068;5.826;2022-09-02T07:28:46;20.30;99.90
67752;DHT22;54551;51.068;5.826;2022-09-02T07:31:15;20.50;99.90
67752;DHT22;54551;51.068;5.826;2022-09-02T07:33:43;20.80;99.90
67752;DHT22;54551;51.068;5.826;2022-09-02T07:36:11;21.00;99.90
67752;DHT22;54551;51.068;5.826;2022-09-02T07:38:38;21.10;99.90
67752;DHT22;54551;51.068;5.826;2022-09-02T07:41:06;21.10;99.90
67752;DHT22;54551;51.068;5.826;2022-09-02T07:43:33;21.10;99.90
67752;DHT22;54551;51.068;5.826;2022-09-02T07:46:00;21.20;99.90
67752;DHT22;54551;51.068;5.826;2022-09-02T07:48:28;21.20;99.90
67752;DHT22;54551;51.068;5.826;2022-09-02T07:50:55;21.30;99.90
67752;DHT22;54551;51.068;5.826;2022-09-02T07:53:21;21.50;99.90
67752;DHT22;54551;51.068;5.826;2022-09-02T07:55:48;21.70;99.90
67752;DHT22;54551;51.068;5.826;2022-09-02T07:58:16;21.80;99.90
67752;DHT22;54551;51.068;5.826;2022-09-02T08:00:42;21.90;99.90
67752;DHT22;54551;51.068;5.826;2022-09-02T08:03:10;22.10;99.90
67752;DHT22;54551;51.068;5.826;2022-09-02T08:05:42;22.10;99.90
67752;DHT22;54551;51.068;5.826;2022-09-02T08:08:09;22.40;99.90
67752;DHT22;54551;51.068;5.826;2022-09-02T08:10:36;22.70;99.90
67752;DHT22;54551;51.068;5.826;2022-09-02T08:13:02;22.70;99.90
67752;DHT22;54551;51.068;5.826;2022-09-02T08:15:32;22.80;99.90
67752;DHT22;54551;51.068;5.826;2022-09-02T08:17:59;23.00;99.90
67752;DHT22;54551;51.068;5.826;2022-09-02T08:20:25;22.80;99.90
67752;DHT22;54551;51.068;5.826;2022-09-02T08:22:51;22.80;99.90
67752;DHT22;54551;51.068;5.826;2022-09-02T08:25:17;22.90;99.90
67752;DHT22;54551;51.068;5.826;2022-09-02T08:27:43;22.60;99.90
67752;DHT22;54551;51.068;5.826;2022-09-02T08:30:10;22.90;99.90
67752;DHT22;54551;51.068;5.826;2022-09-02T08:32:37;22.50;99.90
67752;DHT22;54551;51.068;5.826;2022-09-02T08:35:06;22.60;99.90
67752;DHT22;54551;51.068;5.826;2022-09-02T08:37:33;22.60;99.90
67752;DHT22;54551;51.068;5.826;2022-09-02T08:40:00;22.50;99.90
67752;DHT22;54551;51.068;5.826;2022-09-02T08:42:32;22.60;99.90
67752;DHT22;54551;51.068;5.826;2022-09-02T08:45:06;22.50;99.90
67752;DHT22;54551;51.068;5.826;2022-09-02T08:47:34;22.70;99.90
67752;DHT22;54551;51.068;5.826;2022-09-02T08:50:19;22.70;99.90
67752;DHT22;54551;51.068;5.826;2022-09-02T08:53:06;22.90;99.90
67752;DHT22;54551;51.068;5.826;2022-09-02T08:55:43;23.20;99.90
67752;DHT22;54551;51.068;5.826;2022-09-02T08:58:14;23.60;99.50
67752;DHT22;54551;51.068;5.826;2022-09-02T09:00:43;23.70;98.40
67752;DHT22;54551;51.068;5.826;2022-09-02T09:03:32;23.60;98.80
67752;DHT22;54551;51.068;5.826;2022-09-02T09:06:12;23.10;98.00
67752;DHT22;54551;51.068;5.826;2022-09-02T09:08:50;23.20;99.00
67752;DHT22;54551;51.068;5.826;2022-09-02T09:17:01;23.80;97.00
67752;DHT22;54551;51.068;5.826;2022-09-02T09:19:49;24.20;97.70
67752;DHT22;54551;51.068;5.826;2022-09-02T09:22:23;24.80;95.80
67752;DHT22;54551;51.068;5.826;2022-09-02T09:24:51;25.80;95.40
67752;DHT22;54551;51.068;5.826;2022-09-02T09:27:19;26.40;94.30
67752;DHT22;54551;51.068;5.826;2022-09-02T09:29:46;26.10;93.40
67752;DHT22;54551;51.068;5.826;2022-09-02T09:32:25;26.20;93.40
67752;DHT22;54551;51.068;5.826;2022-09-02T09:37:33;26.10;93.40
67752;DHT22;54551;51.068;5.826;2022-09-02T09:40:00;26.40;92.50
67752;DHT22;54551;51.068;5.826;2022-09-02T09:42:36;26.70;92.10
67752;DHT22;54551;51.068;5.826;2022-09-02T09:55:58;28.90;85.60
67752;DHT22;54551;51.068;5.826;2022-09-02T10:01:18;28.10;85.60
67752;DHT22;54551;51.068;5.826;2022-09-02T10:04:03;28.80;84.10
67752;DHT22;54551;51.068;5.826;2022-09-02T10:09:02;29.10;81.60
67752;DHT22;54551;51.068;5.826;2022-09-02T10:11:34;28.60;84.40
67752;DHT22;54551;51.068;5.826;2022-09-02T10:14:06;28.80;81.40
67752;DHT22;54551;51.068;5.826;2022-09-02T10:38:58;27.90;81.70
67752;DHT22;54551;51.068;5.826;2022-09-02T10:41:42;28.60;77.30
67752;DHT22;54551;51.068;5.826;2022-09-02T10:44:38;29.30;75.40
67752;DHT22;54551;51.068;5.826;2022-09-02T10:47:32;30.40;73.00
67752;DHT22;54551;51.068;5.826;2022-09-02T10:50:11;31.00;70.00
67752;DHT22;54551;51.068;5.826;2022-09-02T10:58:12;31.10;68.70
67752;DHT22;54551;51.068;5.826;2022-09-02T11:00:41;31.10;67.90
67752;DHT22;54551;51.068;5.826;2022-09-02T11:08:37;30.30;67.80
67752;DHT22;54551;51.068;5.826;2022-09-02T11:19:43;30.60;66.70
67752;DHT22;54551;51.068;5.826;2022-09-02T11:22:42;29.40;67.10
67752;DHT22;54551;51.068;5.826;2022-09-02T11:25:18;29.10;68.70
67752;DHT22;54551;51.068;5.826;2022-09-02T11:30:17;29.10;65.90
67752;DHT22;54551;51.068;5.826;2022-09-02T11:33:03;29.40;67.00
67752;DHT22;54551;51.068;5.826;2022-09-02T11:35:37;30.00;65.70
67752;DHT22;54551;51.068;5.826;2022-09-02T11:43:55;30.20;64.40
67752;DHT22;54551;51.068;5.826;2022-09-02T11:47:00;30.70;62.70
67752;DHT22;54551;51.068;5.826;2022-09-02T11:49:41;30.00;61.40
67752;DHT22;54551;51.068;5.826;2022-09-02T11:55:13;31.50;59.00
67752;DHT22;54551;51.068;5.826;2022-09-02T11:57:41;31.60;61.60
67752;DHT22;54551;51.068;5.826;2022-09-02T12:08:08;31.60;58.70
67752;DHT22;54551;51.068;5.826;2022-09-02T12:13:08;31.40;57.90
67752;DHT22;54551;51.068;5.826;2022-09-02T12:15:37;30.10;58.80
67752;DHT22;54551;51.068;5.826;2022-09-02T12:18:13;29.40;60.90
67752;DHT22;54551;51.068;5.826;2022-09-02T12:26:19;29.20;62.40
67752;DHT22;54551;51.068;5.826;2022-09-02T12:28:47;29.50;61.50
67752;DHT22;54551;51.068;5.826;2022-09-02T12:33:54;29.70;60.80
67752;DHT22;54551;51.068;5.826;2022-09-02T12:41:55;30.70;57.40
67752;DHT22;54551;51.068;5.826;2022-09-02T12:44:36;29.80;60.90
67752;DHT22;54551;51.068;5.826;2022-09-02T12:50:05;30.00;60.10
67752;DHT22;54551;51.068;5.826;2022-09-02T12:52:38;29.90;59.60
67752;DHT22;54551;51.068;5.826;2022-09-02T12:57:49;29.40;59.10
67752;DHT22;54551;51.068;5.826;2022-09-02T13:05:55;29.50;60.30
67752;DHT22;54551;51.068;5.826;2022-09-02T13:11:34;30.10;58.30
67752;DHT22;54551;51.068;5.826;2022-09-02T13:31:34;28.70;58.30
67752;DHT22;54551;51.068;5.826;2022-09-02T13:34:10;28.70;58.80
67752;DHT22;54551;51.068;5.826;2022-09-02T13:36:43;28.20;59.00
67752;DHT22;54551;51.068;5.826;2022-09-02T13:39:16;28.60;60.50
67752;DHT22;54551;51.068;5.826;2022-09-02T13:41:42;28.80;60.40
67752;DHT22;54551;51.068;5.826;2022-09-02T13:44:18;29.20;58.40
67752;DHT22;54551;51.068;5.826;2022-09-02T13:46:53;29.10;57.90
67752;DHT22;54551;51.068;5.826;2022-09-02T13:49:24;29.20;62.90
67752;DHT22;54551;51.068;5.826;2022-09-02T13:51:53;29.60;58.20
67752;DHT22;54551;51.068;5.826;2022-09-02T13:54:33;30.00;57.80
67752;DHT22;54551;51.068;5.826;2022-09-02T13:57:01;29.80;57.60
67752;DHT22;54551;51.068;5.826;2022-09-02T14:02:25;28.60;58.20
67752;DHT22;54551;51.068;5.826;2022-09-02T14:05:03;28.20;59.20
67752;DHT22;54551;51.068;5.826;2022-09-02T14:07:35;28.10;59.20
67752;DHT22;54551;51.068;5.826;2022-09-02T14:10:06;28.20;59.40
67752;DHT22;54551;51.068;5.826;2022-09-02T14:12:34;27.80;60.00
67752;DHT22;54551;51.068;5.826;2022-09-02T14:15:01;27.90;60.80
67752;DHT22;54551;51.068;5.826;2022-09-02T14:17:27;28.00;62.30
67752;DHT22;54551;51.068;5.826;2022-09-02T14:22:40;28.10;60.00
67752;DHT22;54551;51.068;5.826;2022-09-02T14:25:14;27.90;59.70
67752;DHT22;54551;51.068;5.826;2022-09-02T14:27:48;28.00;59.80
67752;DHT22;54551;51.068;5.826;2022-09-02T14:30:35;27.90;60.80
67752;DHT22;54551;51.068;5.826;2022-09-02T14:39:10;28.10;59.60
67752;DHT22;54551;51.068;5.826;2022-09-02T14:41:43;28.00;61.40
67752;DHT22;54551;51.068;5.826;2022-09-02T14:46:44;27.70;60.20
67752;DHT22;54551;51.068;5.826;2022-09-02T14:49:25;27.50;62.20
67752;DHT22;54551;51.068;5.826;2022-09-02T14:51:55;27.40;60.60
67752;DHT22;54551;51.068;5.826;2022-09-02T14:54:40;27.30;62.10
67752;DHT22;54551;51.068;5.826;2022-09-02T14:57:29;27.20;61.60
67752;DHT22;54551;51.068;5.826;2022-09-02T15:00:01;27.50;62.10
67752;DHT22;54551;51.068;5.826;2022-09-02T15:02:32;27.20;61.60
67752;DHT22;54551;51.068;5.826;2022-09-02T15:05:00;27.20;63.00
67752;DHT22;54551;51.068;5.826;2022-09-02T15:07:27;27.00;62.40
67752;DHT22;54551;51.068;5.826;2022-09-02T15:09:53;27.10;62.50
67752;DHT22;54551;51.068;5.826;2022-09-02T15:12:28;27.20;62.50
67752;DHT22;54551;51.068;5.826;2022-09-02T15:14:56;27.20;61.90
67752;DHT22;54551;51.068;5.826;2022-09-02T15:17:22;27.40;61.50
67752;DHT22;54551;51.068;5.826;2022-09-02T15:19:47;27.20;61.20
67752;DHT22;54551;51.068;5.826;2022-09-02T15:22:14;26.90;62.60
67752;DHT22;54551;51.068;5.826;2022-09-02T15:24:40;27.10;63.20
67752;DHT22;54551;51.068;5.826;2022-09-02T15:27:11;27.00;61.90
67752;DHT22;54551;51.068;5.826;2022-09-02T15:29:37;27.10;62.90
67752;DHT22;54551;51.068;5.826;2022-09-02T15:32:04;27.10;62.70
67752;DHT22;54551;51.068;5.826;2022-09-02T15:34:31;27.00;63.20
67752;DHT22;54551;51.068;5.826;2022-09-02T15:36:57;27.00;63.50
67752;DHT22;54551;51.068;5.826;2022-09-02T15:39:24;26.60;63.40
67752;DHT22;54551;51.068;5.826;2022-09-02T15:41:50;26.80;64.00
67752;DHT22;54551;51.068;5.826;2022-09-02T15:44:16;26.60;63.90
67752;DHT22;54551;51.068;5.826;2022-09-02T15:46:43;26.50;64.60
67752;DHT22;54551;51.068;5.826;2022-09-02T15:49:11;26.60;63.00
67752;DHT22;54551;51.068;5.826;2022-09-02T15:51:38;26.60;64.20
67752;DHT22;54551;51.068;5.826;2022-09-02T15:54:06;26.40;62.30
67752;DHT22;54551;51.068;5.826;2022-09-02T15:56:34;26.70;62.90
67752;DHT22;54551;51.068;5.826;2022-09-02T15:59:04;26.50;63.50
67752;DHT22;54551;51.068;5.826;2022-09-02T16:01:35;26.40;62.60
67752;DHT22;54551;51.068;5.826;2022-09-02T16:04:02;26.50;61.60
67752;DHT22;54551;51.068;5.826;2022-09-02T16:06:28;26.40;63.10
67752;DHT22;54551;51.068;5.826;2022-09-02T16:08:54;26.20;62.60
67752;DHT22;54551;51.068;5.826;2022-09-02T16:11:21;26.20;63.70
67752;DHT22;54551;51.068;5.826;2022-09-02T16:13:47;26.30;63.30
67752;DHT22;54551;51.068;5.826;2022-09-02T16:16:14;26.20;62.20
67752;DHT22;54551;51.068;5.826;2022-09-02T16:18:41;26.20;62.10
67752;DHT22;54551;51.068;5.826;2022-09-02T16:21:10;26.30;63.70
67752;DHT22;54551;51.068;5.826;2022-09-02T16:23:36;26.30;63.60
67752;DHT22;54551;51.068;5.826;2022-09-02T16:28:39;26.30;62.90
67752;DHT22;54551;51.068;5.826;2022-09-02T16:31:07;26.20;62.00
67752;DHT22;54551;51.068;5.826;2022-09-02T16:33:33;26.20;62.50
67752;DHT22;54551;51.068;5.826;2022-09-02T16:36:00;26.20;62.30
67752;DHT22;54551;51.068;5.826;2022-09-02T16:38:27;26.20;60.60
67752;DHT22;54551;51.068;5.826;2022-09-02T16:40:54;26.10;61.20
67752;DHT22;54551;51.068;5.826;2022-09-02T16:43:20;26.10;61.20
67752;DHT22;54551;51.068;5.826;2022-09-02T16:45:47;26.10;61.40
67752;DHT22;54551;51.068;5.826;2022-09-02T16:48:14;25.90;60.80
67752;DHT22;54551;51.068;5.826;2022-09-02T16:50:47;25.90;61.70
67752;DHT22;54551;51.068;5.826;2022-09-02T16:53:13;25.90;62.40
67752;DHT22;54551;51.068;5.826;2022-09-02T16:55:44;25.80;61.60
67752;DHT22;54551;51.068;5.826;2022-09-02T16:58:11;25.80;62.70
67752;DHT22;54551;51.068;5.826;2022-09-02T17:00:41;25.70;60.70
67752;DHT22;54551;51.068;5.826;2022-09-02T17:03:11;25.70;62.10
67752;DHT22;54551;51.068;5.826;2022-09-02T17:05:37;25.60;61.40
67752;DHT22;54551;51.068;5.826;2022-09-02T17:08:04;25.60;61.40
67752;DHT22;54551;51.068;5.826;2022-09-02T17:10:34;25.70;62.30
67752;DHT22;54551;51.068;5.826;2022-09-02T17:13:00;25.70;62.10
67752;DHT22;54551;51.068;5.826;2022-09-02T17:15:28;25.60;62.10
67752;DHT22;54551;51.068;5.826;2022-09-02T17:17:54;25.60;62.60
67752;DHT22;54551;51.068;5.826;2022-09-02T17:20:20;25.50;62.80
67752;DHT22;54551;51.068;5.826;2022-09-02T17:22:46;25.50;62.30
67752;DHT22;54551;51.068;5.826;2022-09-02T17:25:13;25.40;63.30
67752;DHT22;54551;51.068;5.826;2022-09-02T17:27:39;25.30;62.90
67752;DHT22;54551;51.068;5.826;2022-09-02T17:30:07;25.20;62.30
67752;DHT22;54551;51.068;5.826;2022-09-02T17:32:39;25.20;63.80
67752;DHT22;54551;51.068;5.826;2022-09-02T17:35:07;25.20;63.10
67752;DHT22;54551;51.068;5.826;2022-09-02T17:37:33;25.10;62.90
67752;DHT22;54551;51.068;5.826;2022-09-02T17:40:06;25.00;63.50
67752;DHT22;54551;51.068;5.826;2022-09-02T17:42:53;24.90;63.30
67752;DHT22;54551;51.068;5.826;2022-09-02T17:45:19;24.80;64.80
67752;DHT22;54551;51.068;5.826;2022-09-02T17:47:44;24.80;64.10
67752;DHT22;54551;51.068;5.826;2022-09-02T17:50:10;24.70;64.80
67752;DHT22;54551;51.068;5.826;2022-09-02T17:52:36;24.60;64.50
67752;DHT22;54551;51.068;5.826;2022-09-02T17:55:02;24.60;64.30
67752;DHT22;54551;51.068;5.826;2022-09-02T17:57:37;24.50;64.70
67752;DHT22;54551;51.068;5.826;2022-09-02T18:08:35;24.10;66.30
67752;DHT22;54551;51.068;5.826;2022-09-02T18:11:04;24.10;66.40
67752;DHT22;54551;51.068;5.826;2022-09-02T18:16:32;23.80;66.80
67752;DHT22;54551;51.068;5.826;2022-09-02T18:22:10;23.80;66.50
67752;DHT22;54551;51.068;5.826;2022-09-02T18:30:09;23.70;67.30
67752;DHT22;54551;51.068;5.826;2022-09-02T18:33:07;23.60;67.00
67752;DHT22;54551;51.068;5.826;2022-09-02T18:41:39;23.30;67.60
67752;DHT22;54551;51.068;5.826;2022-09-02T18:47:21;23.30;68.20